createdAt,value
2022-11-19T00:01:34.351Z,70.96
2022-11-19T00:04:02.122Z,70.46
2022-11-19T00:06:31.190Z,69.18
2022-11-19T00:08:58.805Z,69.80
2022-11-19T00:11:42.074Z,69.35
2022-11-19T00:14:10.715Z,69.66
2022-11-19T00:16:38.406Z,69.11
2022-11-19T00:19:06.324Z,69.25
2022-11-19T00:21:35.474Z,69.82
2022-11-19T00:24:03.171Z,69.27
2022-11-19T00:26:30.948Z,70.56
2022-11-19T00:28:58.741Z,68.93
2022-11-19T00:31:26.394Z,69.10
2022-11-19T00:33:55.107Z,69.48
2022-11-19T00:36:23.841Z,69.97
2022-11-19T00:38:52.930Z,69.07
2022-11-19T00:41:20.646Z,69.17
2022-11-19T00:43:48.742Z,68.45
2022-11-19T00:46:17.972Z,68.95
2022-11-19T00:48:45.759Z,69.09
2022-11-19T00:51:14.262Z,69.76
2022-11-19T00:53:42.176Z,68.67
2022-11-19T00:56:12.932Z,68.84
2022-11-19T00:58:41.025Z,69.83
2022-11-19T01:01:09.788Z,68.62
2022-11-19T01:03:38.366Z,68.29
2022-11-19T01:06:06.838Z,68.56
2022-11-19T01:08:34.535Z,68.19
2022-11-19T01:11:05.872Z,68.68
2022-11-19T01:13:36.059Z,68.45
2022-11-19T01:16:05.514Z,67.55
2022-11-19T01:18:33.553Z,68.28
2022-11-19T01:21:01.599Z,69.20
2022-11-19T01:23:29.607Z,68.55
2022-11-19T01:25:57.401Z,68.52
2022-11-19T01:28:25.484Z,69.32
2022-11-19T01:30:54.910Z,68.04
2022-11-19T01:33:23.463Z,68.15
2022-11-19T01:35:58.391Z,68.83
2022-11-19T01:38:26.097Z,68.38
2022-11-19T01:40:53.856Z,68.57
2022-11-19T01:43:21.568Z,68.42
2022-11-19T01:45:52.712Z,68.81
2022-11-19T01:48:24.399Z,68.17
2022-11-19T01:50:54.230Z,67.69
2022-11-19T01:53:23.717Z,68.06
2022-11-19T01:55:51.917Z,67.29
2022-11-19T01:58:22.619Z,67.45
2022-11-19T02:00:50.293Z,67.01
2022-11-19T02:03:19.852Z,67.72
2022-11-19T02:05:49.269Z,67.52
2022-11-19T02:08:39.712Z,68.10
2022-11-19T02:11:32.134Z,67.51
2022-11-19T02:14:10.388Z,67.19
2022-11-19T02:16:43.271Z,68.46
2022-11-19T02:19:18.213Z,67.93
2022-11-19T02:21:54.755Z,67.02
2022-11-19T02:24:41.984Z,67.04
2022-11-19T02:27:44.863Z,67.48
2022-11-19T02:30:16.500Z,67.21
2022-11-19T02:32:58.808Z,66.73
2022-11-19T02:35:36.296Z,66.56
2022-11-19T02:38:06.513Z,67.29
2022-11-19T02:40:38.172Z,66.42
2022-11-19T02:43:15.922Z,67.08
2022-11-19T02:45:47.756Z,66.29
2022-11-19T02:48:17.692Z,66.71
2022-11-19T02:50:47.480Z,66.78
2022-11-19T02:53:15.181Z,65.71
2022-11-19T02:56:03.402Z,67.14
2022-11-19T02:58:50.296Z,66.38
2022-11-19T03:01:37.325Z,66.93
2022-11-19T03:04:23.109Z,66.35
2022-11-19T03:06:50.971Z,65.94
2022-11-19T03:09:19.353Z,66.55
2022-11-19T03:11:49.002Z,67.16
2022-11-19T03:14:37.220Z,66.06
2022-11-19T03:17:09.348Z,65.71
2022-11-19T03:19:38.860Z,66.34
2022-11-19T03:22:11.576Z,66.43
2022-11-19T03:24:43.398Z,65.64
2022-11-19T03:27:13.739Z,65.82
2022-11-19T03:29:44.311Z,65.46
2022-11-19T03:32:16.132Z,65.92
2022-11-19T03:34:45.382Z,66.29
2022-11-19T03:37:15.140Z,66.35
2022-11-19T03:39:44.197Z,66.42
2022-11-19T03:42:14.133Z,66.23
2022-11-19T03:44:44.877Z,67.36
2022-11-19T03:47:18.172Z,66.71
2022-11-19T03:49:49.610Z,66.05
2022-11-19T03:52:19.541Z,65.79
2022-11-19T03:54:47.354Z,66.23
2022-11-19T03:57:21.705Z,66.68
2022-11-19T03:59:49.466Z,66.33
2022-11-19T04:02:19.191Z,66.78
2022-11-19T04:04:47.280Z,66.10
2022-11-19T04:07:17.097Z,66.39
2022-11-19T04:09:44.769Z,65.41
2022-11-19T04:12:17.171Z,66.33
2022-11-19T04:14:44.992Z,65.83
2022-11-19T04:17:12.638Z,65.94
2022-11-19T04:19:41.694Z,65.39
2022-11-19T04:22:09.531Z,66.59
2022-11-19T04:24:37.350Z,65.81
2022-11-19T04:27:05.290Z,65.37
2022-11-19T04:29:33.001Z,65.94
2022-11-19T04:32:00.747Z,67.36
2022-11-19T04:34:28.450Z,67.22
2022-11-19T04:36:57.518Z,65.46
2022-11-19T04:39:25.231Z,66.19
2022-11-19T04:41:52.964Z,65.20
2022-11-19T04:44:20.683Z,65.10
2022-11-19T04:46:48.382Z,64.72
2022-11-19T04:49:16.496Z,66.16
2022-11-19T04:51:44.396Z,65.54
2022-11-19T04:54:13.581Z,66.23
2022-11-19T04:56:41.217Z,65.75
2022-11-19T04:59:08.935Z,65.87
2022-11-19T05:01:36.786Z,65.93
2022-11-19T05:04:04.639Z,65.55
2022-11-19T05:06:33.365Z,65.93
2022-11-19T05:09:01.024Z,65.42
2022-11-19T05:11:30.100Z,65.30
2022-11-19T05:13:57.884Z,66.26
2022-11-19T05:16:25.639Z,64.93
2022-11-19T05:18:53.296Z,65.72
2022-11-19T05:21:20.940Z,66.62
2022-11-19T05:23:48.631Z,65.34
2022-11-19T05:26:16.312Z,64.69
2022-11-19T05:28:45.955Z,65.59
2022-11-19T05:31:13.615Z,67.18
2022-11-19T05:33:41.338Z,68.22
2022-11-19T05:36:09.460Z,68.60
2022-11-19T05:38:37.467Z,68.93
2022-11-19T05:41:05.364Z,69.35
2022-11-19T05:43:33.091Z,69.72
2022-11-19T05:46:02.838Z,69.40
2022-11-19T05:48:31.123Z,69.59
2022-11-19T05:50:59.008Z,69.59
2022-11-19T05:53:27.444Z,70.06
2022-11-19T05:55:55.196Z,70.14
2022-11-19T05:58:22.887Z,70.18
2022-11-19T06:00:55.421Z,70.35
2022-11-19T06:03:24.488Z,70.16
2022-11-19T06:05:52.554Z,70.11
2022-11-19T06:08:20.366Z,70.18
2022-11-19T06:10:50.809Z,70.45
2022-11-19T06:13:18.595Z,70.38
2022-11-19T06:15:46.381Z,70.73
2022-11-19T06:18:14.068Z,70.87
2022-11-19T06:20:43.088Z,70.52
2022-11-19T06:23:10.804Z,70.76
2022-11-19T06:25:38.491Z,70.46
2022-11-19T06:28:06.473Z,70.70
2022-11-19T06:30:34.127Z,70.62
2022-11-19T06:33:01.818Z,70.49
2022-11-19T06:35:29.468Z,70.47
2022-11-19T06:37:58.649Z,70.38
2022-11-19T06:40:26.919Z,70.56
2022-11-19T06:42:54.636Z,70.44
2022-11-19T06:45:22.326Z,70.72
2022-11-19T06:47:50.136Z,70.64
2022-11-19T06:50:18.280Z,70.17
2022-11-19T06:52:45.923Z,70.34
2022-11-19T06:55:15.092Z,70.32
2022-11-19T06:57:42.749Z,70.04
2022-11-19T07:00:12.148Z,70.44
2022-11-19T07:02:40.976Z,70.26
2022-11-19T07:05:09.526Z,70.03
2022-11-19T07:07:37.318Z,70.33
2022-11-19T07:10:05.548Z,70.28
2022-11-19T07:12:35.090Z,70.31
2022-11-19T07:15:04.635Z,70.55
2022-11-19T07:17:32.574Z,70.55
2022-11-19T07:20:00.387Z,70.56
2022-11-19T07:22:28.288Z,70.19
2022-11-19T07:24:56.017Z,70.12
2022-11-19T07:27:23.752Z,70.11
2022-11-19T07:29:52.848Z,69.87
2022-11-19T07:32:20.604Z,70.36
2022-11-19T07:34:48.215Z,70.14
2022-11-19T07:37:15.907Z,70.08
2022-11-19T07:39:43.600Z,69.96
2022-11-19T07:42:28.911Z,69.89
2022-11-19T07:44:57.980Z,70.05
2022-11-19T07:47:25.600Z,70.08
2022-11-19T07:49:54.222Z,70.14
2022-11-19T07:52:22.531Z,70.16
2022-11-19T07:54:50.217Z,70.10
2022-11-19T07:57:17.969Z,69.99
2022-11-19T07:59:45.624Z,70.02
2022-11-19T08:02:15.176Z,70.04
2022-11-19T08:04:43.189Z,70.14
2022-11-19T08:07:10.890Z,69.88
2022-11-19T08:09:38.525Z,70.20
2022-11-19T08:12:06.854Z,70.07
2022-11-19T08:14:34.598Z,70.00
2022-11-19T08:17:20.072Z,69.37
2022-11-19T08:19:49.193Z,69.60
2022-11-19T08:22:16.818Z,69.68
2022-11-19T08:24:45.502Z,69.53
2022-11-19T08:27:13.235Z,69.31
2022-11-19T08:29:40.955Z,69.04
2022-11-19T08:32:08.596Z,69.40
2022-11-19T08:34:36.641Z,69.40
2022-11-19T08:37:05.658Z,69.42
2022-11-19T08:39:33.317Z,69.24
2022-11-19T08:42:18.372Z,69.18
2022-11-19T08:44:46.038Z,69.27
2022-11-19T08:47:15.509Z,69.33
2022-11-19T08:49:43.193Z,69.03
2022-11-19T08:52:12.296Z,68.59
2022-11-19T08:54:39.982Z,68.66
2022-11-19T08:57:07.770Z,68.50
2022-11-19T08:59:35.972Z,68.23
2022-11-19T09:02:03.659Z,68.35
2022-11-19T09:04:31.396Z,68.13
2022-11-19T09:06:59.312Z,67.94
2022-11-19T09:09:28.384Z,68.01
2022-11-19T09:11:56.396Z,67.96
2022-11-19T09:14:24.131Z,67.85
2022-11-19T09:16:51.834Z,67.51
2022-11-19T09:19:19.567Z,67.37
2022-11-19T09:21:47.232Z,67.74
2022-11-19T09:24:14.858Z,67.70
2022-11-19T09:26:47.612Z,67.19
2022-11-19T09:29:17.932Z,67.40
2022-11-19T09:31:45.569Z,66.79
2022-11-19T09:34:13.326Z,66.98
2022-11-19T09:36:41.072Z,66.59
2022-11-19T09:39:08.767Z,66.22
2022-11-19T09:41:45.448Z,66.24
2022-11-19T09:44:20.884Z,66.66
2022-11-19T09:46:54.408Z,66.66
2022-11-19T09:49:26.402Z,66.22
2022-11-19T09:51:57.474Z,65.72
2022-11-19T09:54:25.401Z,65.71
2022-11-19T09:56:59.197Z,65.68
2022-11-19T09:59:34.623Z,65.62
2022-11-19T10:02:02.327Z,65.49
2022-11-19T10:04:33.409Z,65.10
2022-11-19T10:07:07.860Z,65.13
2022-11-19T10:09:48.911Z,64.80
2022-11-19T10:12:29.999Z,64.79
2022-11-19T10:15:10.283Z,63.94
2022-11-19T10:17:47.695Z,63.80
2022-11-19T10:20:28.446Z,64.15
2022-11-19T10:22:58.695Z,63.87
2022-11-19T10:25:29.626Z,63.67
2022-11-19T10:28:07.326Z,63.29
2022-11-19T10:30:35.351Z,63.65
2022-11-19T10:33:05.864Z,63.02
2022-11-19T10:35:37.255Z,63.49
2022-11-19T10:38:08.144Z,63.76
2022-11-19T10:40:39.593Z,63.92
2022-11-19T10:43:22.065Z,63.29
2022-11-19T10:45:51.006Z,63.32
2022-11-19T10:48:22.419Z,62.68
2022-11-19T10:50:50.726Z,62.88
2022-11-19T10:53:21.326Z,62.95
2022-11-19T10:55:54.801Z,62.70
2022-11-19T10:58:27.091Z,62.63
2022-11-19T11:00:55.615Z,62.50
2022-11-19T11:03:25.869Z,62.79
2022-11-19T11:05:58.959Z,62.32
2022-11-19T11:08:26.962Z,62.19
2022-11-19T11:10:54.888Z,62.40
2022-11-19T11:14:05.489Z,61.56
2022-11-19T11:16:44.333Z,62.36
2022-11-19T11:19:17.902Z,61.18
2022-11-19T11:21:46.936Z,61.69
2022-11-19T11:24:15.311Z,60.27
2022-11-19T11:26:42.943Z,60.70
2022-11-19T11:32:22.529Z,61.62
2022-11-19T11:34:49.960Z,62.43
2022-11-19T11:37:17.687Z,62.61
2022-11-19T11:39:47.727Z,61.44
2022-11-19T11:42:18.715Z,60.60
2022-11-19T11:44:51.387Z,61.20
2022-11-19T11:47:22.356Z,61.17
2022-11-19T11:49:56.508Z,61.63
2022-11-19T11:52:29.184Z,61.08
2022-11-19T11:54:59.346Z,60.10
2022-11-19T11:57:28.575Z,56.30
2022-11-19T11:59:56.445Z,58.94
2022-11-19T12:02:30.285Z,58.64
2022-11-19T12:05:01.509Z,53.32
2022-11-19T12:07:47.189Z,54.81
2022-11-19T12:10:27.836Z,53.81
2022-11-19T12:13:03.577Z,56.27
2022-11-19T12:15:39.074Z,56.66
2022-11-19T12:18:13.778Z,53.29
2022-11-19T12:20:45.995Z,55.96
2022-11-19T12:23:20.342Z,57.99
2022-11-19T12:25:53.622Z,59.04
2022-11-19T12:28:45.226Z,58.81
2022-11-19T12:31:25.121Z,59.38
2022-11-19T12:34:21.168Z,59.45
2022-11-19T12:36:56.997Z,59.59
2022-11-19T12:39:36.622Z,60.05
2022-11-19T12:42:27.291Z,59.87
2022-11-19T12:44:59.615Z,60.20
2022-11-19T12:47:44.689Z,59.69
2022-11-19T12:50:22.529Z,60.30
2022-11-19T12:53:04.393Z,59.83
2022-11-19T12:55:37.652Z,59.46
2022-11-19T12:58:10.609Z,59.14
2022-11-19T13:00:42.845Z,58.64
2022-11-19T13:03:14.943Z,59.27
2022-11-19T13:05:45.088Z,59.94
2022-11-19T13:08:14.146Z,60.46
2022-11-19T13:10:45.927Z,59.88
2022-11-19T13:13:17.348Z,59.71
2022-11-19T13:15:47.269Z,59.16
2022-11-19T13:18:16.613Z,58.65
2022-11-19T13:20:49.940Z,58.58
2022-11-19T13:23:22.619Z,59.25
2022-11-19T13:25:57.846Z,58.92
2022-11-19T13:28:28.678Z,57.82
2022-11-19T13:30:59.915Z,58.96
2022-11-19T13:33:32.170Z,58.62
2022-11-19T13:36:05.779Z,59.12
2022-11-19T13:38:38.325Z,59.25
2022-11-19T13:41:11.697Z,59.18
2022-11-19T13:43:56.905Z,59.76
2022-11-19T13:46:26.496Z,59.79
2022-11-19T13:48:57.737Z,59.32
2022-11-19T13:51:30.611Z,58.83
2022-11-19T13:54:03.099Z,58.13
2022-11-19T13:56:43.151Z,57.01
2022-11-19T13:59:30.734Z,58.93
2022-11-19T14:02:27.488Z,58.50
2022-11-19T14:05:06.064Z,59.44
2022-11-19T14:07:55.326Z,59.21
2022-11-19T14:10:27.340Z,59.31
2022-11-19T14:13:04.420Z,60.13
2022-11-19T14:15:56.008Z,61.03
2022-11-19T14:18:42.283Z,59.83
2022-11-19T14:21:46.376Z,60.32
2022-11-19T14:24:46.427Z,60.81
2022-11-19T14:27:19.572Z,60.35
2022-11-19T14:29:54.101Z,61.57
2022-11-19T14:32:34.326Z,61.34
2022-11-19T14:35:31.741Z,60.46
2022-11-19T14:38:06.877Z,60.87
2022-11-19T14:40:38.503Z,60.13
2022-11-19T14:43:44.192Z,60.07
2022-11-19T14:46:28.474Z,60.46
2022-11-19T14:49:02.228Z,60.17
2022-11-19T14:51:32.825Z,59.58
2022-11-19T14:54:04.575Z,59.41
2022-11-19T14:56:33.020Z,59.44
2022-11-19T14:59:08.926Z,59.38
2022-11-19T15:01:50.478Z,59.17
2022-11-19T15:04:21.419Z,59.12
2022-11-19T15:06:49.413Z,59.58
2022-11-19T15:10:01.320Z,59.37
2022-11-19T15:12:35.325Z,59.71
2022-11-19T15:15:36.848Z,59.42
2022-11-19T15:18:15.515Z,63.16
2022-11-19T15:20:57.981Z,63.47
2022-11-19T15:25:40.753Z,61.21
2022-11-19T15:28:21.294Z,60.21
2022-11-19T15:31:14.285Z,60.27
2022-11-19T15:33:55.525Z,60.17
2022-11-19T15:36:30.907Z,60.09
2022-11-19T15:39:02.568Z,60.34
2022-11-19T15:41:34.114Z,60.14
2022-11-19T15:44:05.374Z,60.42
2022-11-19T15:46:39.576Z,60.58
2022-11-19T15:49:12.828Z,60.66
2022-11-19T15:51:55.483Z,60.58
2022-11-19T15:54:27.759Z,60.67
2022-11-19T15:56:59.939Z,56.84
2022-11-19T15:59:28.524Z,59.03
2022-11-19T16:02:02.230Z,59.86
2022-11-19T16:04:36.976Z,60.73
2022-11-19T16:07:05.900Z,60.83
2022-11-19T16:09:33.956Z,61.13
2022-11-19T16:15:11.280Z,62.92
2022-11-19T16:17:48.646Z,62.03
2022-11-19T16:20:23.051Z,61.91
2022-11-19T16:22:57.606Z,61.97
2022-11-19T16:25:30.967Z,62.01
2022-11-19T16:28:00.483Z,61.93
2022-11-19T16:30:31.274Z,61.96
2022-11-19T16:33:00.052Z,61.80
2022-11-19T16:35:31.392Z,61.67
2022-11-19T16:38:00.726Z,61.98
2022-11-19T16:40:50.061Z,61.37
2022-11-19T16:43:16.973Z,61.75
2022-11-19T16:45:47.151Z,61.41
2022-11-19T16:48:57.874Z,61.74
2022-11-19T16:51:40.173Z,62.42
2022-11-19T16:54:09.812Z,62.56
2022-11-19T16:56:41.342Z,62.15
2022-11-19T16:59:17.603Z,62.29
2022-11-19T17:01:52.363Z,62.18
2022-11-19T17:04:20.592Z,62.17
2022-11-19T17:06:48.661Z,62.25
2022-11-19T17:09:31.071Z,62.00
2022-11-19T17:12:16.193Z,62.39
2022-11-19T17:14:58.621Z,62.08
2022-11-19T17:17:43.200Z,62.30
2022-11-19T17:21:01.451Z,62.04
2022-11-19T17:23:30.862Z,62.54
2022-11-19T17:26:00.111Z,62.78
2022-11-19T17:28:35.068Z,62.51
2022-11-19T17:31:04.480Z,62.67
2022-11-19T17:33:36.582Z,62.71
2022-11-19T17:36:05.003Z,62.65
2022-11-19T17:38:33.613Z,62.70
2022-11-19T17:41:02.644Z,62.60
2022-11-19T17:43:49.585Z,63.08
2022-11-19T17:46:17.561Z,63.43
2022-11-19T17:48:47.777Z,63.35
2022-11-19T17:51:16.994Z,63.33
2022-11-19T17:53:44.806Z,63.48
2022-11-19T17:56:17.981Z,63.12
2022-11-19T17:58:45.633Z,63.52
2022-11-19T18:01:13.422Z,59.82
2022-11-19T18:03:41.163Z,61.55
2022-11-19T18:06:12.621Z,62.36
2022-11-19T18:08:41.973Z,62.45
2022-11-19T18:11:11.444Z,62.61
2022-11-19T18:13:39.351Z,62.94
2022-11-19T18:16:13.346Z,63.29
2022-11-19T18:18:40.956Z,63.32
2022-11-19T18:21:12.346Z,63.33
2022-11-19T18:23:40.818Z,63.77
2022-11-19T18:26:10.434Z,63.80
2022-11-19T18:28:38.161Z,63.94
2022-11-19T18:31:06.032Z,64.08
2022-11-19T18:33:34.572Z,64.09
2022-11-19T18:36:02.208Z,64.07
2022-11-19T18:38:31.343Z,64.15
2022-11-19T18:40:59.001Z,64.13
2022-11-19T18:43:44.040Z,64.18
2022-11-19T18:46:11.797Z,64.27
2022-11-19T18:48:39.531Z,65.47
2022-11-19T18:51:47.591Z,65.40
2022-11-19T18:54:15.353Z,64.87
2022-11-19T18:56:43.009Z,64.43
2022-11-19T18:59:12.454Z,64.44
2022-11-19T19:01:40.625Z,64.24
2022-11-19T19:04:09.937Z,64.29
2022-11-19T19:06:37.645Z,64.50
2022-11-19T19:09:06.779Z,64.56
2022-11-19T19:11:51.700Z,64.63
2022-11-19T19:14:19.579Z,64.73
2022-11-19T19:16:47.190Z,64.74
2022-11-19T19:19:16.080Z,64.86
2022-11-19T19:21:43.946Z,65.02
2022-11-19T19:24:13.213Z,64.80
2022-11-19T19:26:40.916Z,64.88
2022-11-19T19:29:08.696Z,65.01
2022-11-19T19:31:36.827Z,65.03
2022-11-19T19:34:04.803Z,65.11
2022-11-19T19:36:32.628Z,64.92
2022-11-19T19:39:00.278Z,65.17
2022-11-19T19:41:29.573Z,65.04
2022-11-19T19:43:58.319Z,65.42
2022-11-19T19:46:26.064Z,65.55
2022-11-19T19:48:55.538Z,65.78
2022-11-19T19:51:24.736Z,65.51
2022-11-19T19:53:53.980Z,65.87
2022-11-19T19:56:23.204Z,65.98
2022-11-19T19:58:52.519Z,65.91
2022-11-19T20:01:22.415Z,65.94
2022-11-19T20:03:54.257Z,65.96
2022-11-19T20:06:24.027Z,66.04
2022-11-19T20:08:51.919Z,65.89
2022-11-19T20:11:20.926Z,65.95
2022-11-19T20:13:48.864Z,66.25
2022-11-19T20:16:18.983Z,66.30
2022-11-19T20:18:47.501Z,66.54
2022-11-19T20:21:16.807Z,66.43
2022-11-19T20:23:44.881Z,66.43
2022-11-19T20:26:14.028Z,66.26
2022-11-19T20:28:42.053Z,66.40
2022-11-19T20:31:12.294Z,66.12
2022-11-19T20:33:42.646Z,66.21
2022-11-19T20:36:11.696Z,66.08
2022-11-19T20:38:40.910Z,66.15
2022-11-19T20:41:31.665Z,66.10
2022-11-19T20:44:17.754Z,66.35
2022-11-19T20:46:46.025Z,66.14
2022-11-19T20:49:17.200Z,66.38
2022-11-19T20:51:45.728Z,66.25
2022-11-19T20:54:13.742Z,66.24
2022-11-19T20:56:41.858Z,66.32
2022-11-19T20:59:09.808Z,66.50
2022-11-19T21:01:38.382Z,66.43
2022-11-19T21:04:06.661Z,66.43
2022-11-19T21:06:35.880Z,66.62
2022-11-19T21:09:04.292Z,66.72
2022-11-19T21:11:33.119Z,66.81
2022-11-19T21:14:00.931Z,66.78
2022-11-19T21:16:29.860Z,66.57
2022-11-19T21:18:57.947Z,66.86
2022-11-19T21:21:26.527Z,66.64
2022-11-19T21:23:56.011Z,66.80
2022-11-19T21:26:25.210Z,66.62
2022-11-19T21:28:54.353Z,66.85
2022-11-19T21:31:37.720Z,66.95
2022-11-19T21:34:06.113Z,67.00
2022-11-19T21:36:34.028Z,67.00
2022-11-19T21:39:03.671Z,67.07
2022-11-19T21:41:31.461Z,67.19
2022-11-19T21:43:59.218Z,67.39
2022-11-19T21:46:27.003Z,67.20
2022-11-19T21:48:54.931Z,67.14
2022-11-19T21:51:24.844Z,67.30
2022-11-19T21:53:54.656Z,67.04
2022-11-19T21:56:24.127Z,66.97
2022-11-19T21:58:51.936Z,66.94
2022-11-19T22:01:19.740Z,67.10
2022-11-19T22:03:47.490Z,67.43
2022-11-19T22:06:15.241Z,67.52
2022-11-19T22:08:43.244Z,67.40
2022-11-19T22:11:29.741Z,67.18
2022-11-19T22:14:00.408Z,67.33
2022-11-19T22:16:28.768Z,67.31
2022-11-19T22:18:56.516Z,67.40
2022-11-19T22:21:24.343Z,67.55
2022-11-19T22:23:52.804Z,67.43
2022-11-19T22:26:20.721Z,67.41
2022-11-19T22:28:48.560Z,67.79
2022-11-19T22:31:17.794Z,67.89
2022-11-19T22:33:47.762Z,67.80
2022-11-19T22:36:15.504Z,67.58
2022-11-19T22:38:43.360Z,67.67
2022-11-19T22:41:12.500Z,67.75
2022-11-19T22:43:41.079Z,67.64
2022-11-19T22:46:09.741Z,67.89
2022-11-19T22:48:39.289Z,67.66
2022-11-19T22:51:08.330Z,67.76
2022-11-19T22:53:36.538Z,67.60
2022-11-19T22:56:04.984Z,67.65
2022-11-19T22:58:33.958Z,67.58
2022-11-19T23:02:48.917Z,68.00
2022-11-19T23:05:16.685Z,67.62
2022-11-19T23:07:44.441Z,67.52
2022-11-19T23:10:12.124Z,67.32
2022-11-19T23:12:57.112Z,67.34
2022-11-19T23:15:24.745Z,67.65
2022-11-19T23:17:53.827Z,67.72
2022-11-19T23:20:21.528Z,67.66
2022-11-19T23:22:49.164Z,67.61
2022-11-19T23:25:17.026Z,67.86
2022-11-19T23:27:44.720Z,67.86
2022-11-19T23:30:12.660Z,68.04
2022-11-19T23:32:40.863Z,68.13
2022-11-19T23:35:10.236Z,68.07
2022-11-19T23:37:37.898Z,68.06
2022-11-19T23:40:06.454Z,68.17
2022-11-19T23:42:34.102Z,68.12
2022-11-19T23:45:01.720Z,68.26
2022-11-19T23:47:29.339Z,68.03
2022-11-19T23:49:57.001Z,68.20
2022-11-19T23:52:26.051Z,67.98
2022-11-19T23:54:53.835Z,68.18
2022-11-19T23:57:21.618Z,67.94
2022-11-19T23:59:49.272Z,68.30
